Time;durP1;ratioP1;P1;durP2;ratioP2;P2;SDS_P1;SDS_P2;PMS_P1;PMS_P2;Temp;Humidity;BMP_temperature;BMP_pressure;BME280_temperature;BME280_humidity;BME280_pressure;Samples;Min_cycle;Max_cycle;Signal;HPM_P1;HPM_P2
2023/09/10 00:00:22;;;;;;;33.83;21.92;;;17.10;99.90;;;;;;5158278;27;20489;-76
2023/09/10 00:02:48;;;;;;;78.20;19.00;;;17.00;99.90;;;;;;5158454;27;20050;-76
2023/09/10 00:05:14;;;;;;;35.60;13.60;;;16.80;99.90;;;;;;5139193;27;20066;-76
2023/09/10 00:07:40;;;;;;;74.05;12.65;;;16.60;99.90;;;;;;5119464;27;20078;-76
2023/09/10 00:10:06;;;;;;;12.40;11.10;;;16.40;99.90;;;;;;5137080;27;20079;-76
2023/09/10 00:12:32;;;;;;;10.50;9.60;;;16.30;99.90;;;;;;5119497;27;20104;-76
2023/09/10 00:14:57;;;;;;;11.45;10.25;;;16.20;99.90;;;;;;5137177;27;20047;-76
2023/09/10 00:17:23;;;;;;;12.60;11.30;;;16.20;99.90;;;;;;5137556;27;20039;-76
2023/09/10 00:19:49;;;;;;;34.40;13.57;;;16.20;99.90;;;;;;5137391;27;20437;-76
2023/09/10 00:22:14;;;;;;;17.85;15.07;;;16.10;99.90;;;;;;5137673;27;20046;-77
2023/09/10 00:24:40;;;;;;;19.33;13.85;;;16.10;99.90;;;;;;5137356;27;20043;-77
2023/09/10 00:27:06;;;;;;;25.92;15.70;;;16.00;99.90;;;;;;5137185;27;20043;-76
2023/09/10 00:29:31;;;;;;;123.22;19.80;;;16.10;99.90;;;;;;5137377;27;20195;-77
2023/09/10 00:31:57;;;;;;;79.82;18.67;;;16.10;99.90;;;;;;5118590;27;20050;-77
2023/09/10 00:34:23;;;;;;;133.65;20.27;;;16.10;99.90;;;;;;5137000;27;20047;-78
2023/09/10 00:36:48;;;;;;;134.40;21.00;;;16.10;99.90;;;;;;5118930;27;20357;-77
2023/09/10 00:39:14;;;;;;;28.67;19.02;;;16.10;99.90;;;;;;5136322;27;20129;-76
2023/09/10 00:41:39;;;;;;;23.23;18.52;;;16.10;99.90;;;;;;5156962;27;20043;-77
2023/09/10 00:44:05;;;;;;;22.92;18.52;;;16.20;99.90;;;;;;5156915;27;20436;-76
2023/09/10 00:46:31;;;;;;;21.42;17.48;;;16.20;99.90;;;;;;5157277;27;20049;-76
2023/09/10 00:48:59;;;;;;;22.25;17.77;;;16.20;99.90;;;;;;5157422;27;20122;-76
2023/09/10 00:51:25;;;;;;;29.40;19.88;;;16.20;99.90;;;;;;5157329;27;20088;-76
2023/09/10 00:53:52;;;;;;;78.90;20.17;;;16.20;99.90;;;;;;5157399;27;20089;-76
2023/09/10 00:56:20;;;;;;;36.90;15.68;;;16.20;99.90;;;;;;5139014;27;20046;-77
2023/09/10 00:58:46;;;;;;;38.40;15.60;;;16.10;99.90;;;;;;5157454;27;20104;-77
2023/09/10 01:01:12;;;;;;;40.30;18.60;;;16.10;99.90;;;;;;5138332;27;20058;-77
2023/09/10 01:03:40;;;;;;;29.63;18.20;;;16.10;99.90;;;;;;5157327;27;20051;-77
2023/09/10 01:06:06;;;;;;;21.15;18.00;;;16.20;99.90;;;;;;5130666;27;20078;-77
2023/09/10 01:08:32;;;;;;;17.58;14.80;;;16.20;99.90;;;;;;5136474;27;20122;-77
2023/09/10 01:11:10;;;;;;;15.90;14.30;;;16.10;99.90;;;;;;5136319;27;20035;-78
2023/09/10 01:13:51;;;;;;;15.05;12.65;;;16.20;99.90;;;;;;5136699;27;20453;-77
2023/09/10 01:16:58;;;;;;;15.77;14.18;;;16.10;99.90;;;;;;5136466;27;20043;-77
2023/09/10 01:19:45;;;;;;;45.67;18.35;;;16.10;99.90;;;;;;5018269;28;20088;-77
2023/09/10 01:22:29;;;;;;;22.27;15.55;;;16.20;99.90;;;;;;5116992;27;20066;-77
2023/09/10 01:24:55;;;;;;;174.95;19.73;;;16.20;99.90;;;;;;5136466;27;20138;-77
2023/09/10 01:27:21;;;;;;;72.22;17.60;;;16.20;99.90;;;;;;5136275;27;20053;-77
2023/09/10 01:29:47;;;;;;;80.20;18.95;;;16.20;99.90;;;;;;5136086;27;20078;-77
2023/09/10 01:32:30;;;;;;;163.65;20.30;;;16.30;99.90;;;;;;5135866;27;20039;-77
2023/09/10 01:35:13;;;;;;;59.95;20.67;;;16.30;99.90;;;;;;5136242;27;20125;-76
2023/09/10 01:37:52;;;;;;;41.95;18.33;;;16.30;99.90;;;;;;5139741;27;20110;-76
2023/09/10 01:40:21;;;;;;;67.03;18.88;;;16.30;99.90;;;;;;5156190;27;20035;-77
2023/09/10 01:42:49;;;;;;;28.88;15.38;;;16.10;99.90;;;;;;5156549;27;20047;-77
2023/09/10 01:45:15;;;;;;;31.85;14.20;;;16.00;99.90;;;;;;5138154;27;20051;-78
2023/09/10 01:47:41;;;;;;;102.68;18.60;;;16.00;99.90;;;;;;5156396;27;20057;-76
2023/09/10 01:50:08;;;;;;;115.07;22.52;;;16.00;99.90;;;;;;5156312;27;20067;-76
2023/09/10 01:52:33;;;;;;;43.35;19.20;;;15.90;99.90;;;;;;5156356;27;20047;-77
2023/09/10 01:54:59;;;;;;;27.10;18.88;;;15.80;99.90;;;;;;5156389;27;20062;-76
2023/09/10 01:57:25;;;;;;;149.32;25.33;;;15.80;99.90;;;;;;5156353;27;20050;-76
2023/09/10 01:59:50;;;;;;;24.02;19.48;;;15.80;99.90;;;;;;5137328;27;20043;-76
2023/09/10 02:02:17;;;;;;;43.70;21.27;;;15.80;99.90;;;;;;5156158;27;20091;-76
2023/09/10 02:04:43;;;;;;;137.07;25.50;;;15.80;99.90;;;;;;5156033;27;20059;-76
2023/09/10 02:07:09;;;;;;;46.50;22.55;;;15.80;99.90;;;;;;5155714;27;20555;-76
2023/09/10 02:09:34;;;;;;;101.70;24.73;;;15.80;99.90;;;;;;5155650;27;20094;-75
2023/09/10 02:12:00;;;;;;;97.45;21.55;;;15.80;99.90;;;;;;5137210;27;20050;-77
2023/09/10 02:14:26;;;;;;;70.28;20.60;;;15.80;99.90;;;;;;5155627;27;20099;-77
2023/09/10 02:16:51;;;;;;;160.88;25.42;;;15.80;99.90;;;;;;5155466;27;20053;-77
2023/09/10 02:19:17;;;;;;;36.10;20.15;;;15.70;99.90;;;;;;5155408;27;20046;-76
2023/09/10 02:21:42;;;;;;;34.42;19.00;;;15.70;99.90;;;;;;5137415;27;20405;-77
2023/09/10 02:24:08;;;;;;;29.40;19.45;;;15.70;99.90;;;;;;5156004;27;20043;-77
2023/09/10 02:26:34;;;;;;;41.42;18.75;;;15.70;99.90;;;;;;5155650;27;20039;-78
2023/09/10 02:28:59;;;;;;;21.48;16.77;;;15.70;99.90;;;;;;5155427;27;20509;-78
2023/09/10 02:31:25;;;;;;;20.33;17.27;;;15.60;99.90;;;;;;5136902;27;20039;-76
2023/09/10 02:33:53;;;;;;;102.13;19.70;;;15.60;99.90;;;;;;5137309;27;20501;-76
2023/09/10 02:36:19;;;;;;;205.52;25.92;;;15.50;99.90;;;;;;5137125;27;20121;-76
2023/09/10 02:38:44;;;;;;;70.72;19.60;;;15.40;99.90;;;;;;5141732;27;20436;-76
2023/09/10 02:41:10;;;;;;;37.00;15.98;;;15.40;99.90;;;;;;5134146;27;20047;-76
2023/09/10 02:43:36;;;;;;;198.07;23.90;;;15.40;99.90;;;;;;5134314;27;20047;-77
2023/09/10 02:46:03;;;;;;;95.47;17.80;;;15.40;99.90;;;;;;5135224;27;20487;-76
2023/09/10 02:48:28;;;;;;;39.45;10.77;;;15.30;99.90;;;;;;5134227;27;20449;-76
2023/09/10 02:50:54;;;;;;;35.45;15.95;;;15.20;99.90;;;;;;5134795;27;20039;-77
2023/09/10 02:53:20;;;;;;;19.80;16.50;;;15.20;99.90;;;;;;5116618;27;20499;-77
2023/09/10 02:55:45;;;;;;;88.63;18.15;;;15.40;99.90;;;;;;5134496;27;20494;-77
2023/09/10 02:58:11;;;;;;;19.63;17.30;;;15.40;99.90;;;;;;5134595;27;20039;-76
2023/09/10 03:00:36;;;;;;;23.77;17.95;;;15.50;99.90;;;;;;5133829;27;20046;-76
2023/09/10 03:03:02;;;;;;;27.52;18.98;;;15.50;99.90;;;;;;5134179;27;20047;-76
2023/09/10 03:05:33;;;;;;;209.40;22.90;;;15.50;99.90;;;;;;5133924;27;20063;-76
2023/09/10 03:07:59;;;;;;;35.97;15.48;;;15.50;99.90;;;;;;5134508;28;20760;-75
2023/09/10 03:10:24;;;;;;;142.10;24.50;;;15.50;99.90;;;;;;5133812;28;20126;-76
2023/09/10 03:12:50;;;;;;;28.33;13.20;;;15.40;99.90;;;;;;5134267;28;20373;-78
2023/09/10 03:15:16;;;;;;;29.80;16.33;;;15.30;99.90;;;;;;5133949;28;20472;-76
2023/09/10 03:17:41;;;;;;;78.35;19.38;;;15.20;99.90;;;;;;5115739;28;20447;-76
2023/09/10 03:20:09;;;;;;;112.97;18.80;;;15.20;99.90;;;;;;5134096;28;20046;-76
2023/09/10 03:22:36;;;;;;;53.53;18.05;;;15.20;99.90;;;;;;5133914;28;20479;-76
2023/09/10 03:25:02;;;;;;;18.98;16.58;;;15.20;99.90;;;;;;5134094;28;20054;-75
2023/09/10 03:27:28;;;;;;;19.73;15.43;;;15.10;99.90;;;;;;5133891;27;20039;-76
2023/09/10 03:29:53;;;;;;;34.67;19.98;;;15.10;99.90;;;;;;5138036;27;20516;-76
2023/09/10 03:32:19;;;;;;;32.17;18.48;;;15.10;99.90;;;;;;5119972;27;20044;-76
2023/09/10 03:34:45;;;;;;;28.92;18.02;;;15.10;99.90;;;;;;5138242;27;20099;-76
2023/09/10 03:37:10;;;;;;;22.55;17.55;;;15.10;99.90;;;;;;5138113;27;20047;-76
2023/09/10 03:39:36;;;;;;;19.15;16.75;;;15.20;99.90;;;;;;5159239;27;20130;-76
2023/09/10 03:42:02;;;;;;;17.80;14.75;;;15.30;99.90;;;;;;5158615;27;20115;-76
2023/09/10 03:44:28;;;;;;;27.13;17.83;;;15.40;99.90;;;;;;5159075;27;20057;-76
2023/09/10 03:46:54;;;;;;;29.75;15.75;;;15.40;99.90;;;;;;5158482;27;20409;-76
2023/09/10 03:49:20;;;;;;;78.55;17.85;;;15.40;99.90;;;;;;5158409;27;20580;-77
2023/09/10 03:51:49;;;;;;;16.80;14.85;;;15.40;99.90;;;;;;5140081;27;20130;-76
2023/09/10 03:54:14;;;;;;;34.58;14.75;;;15.30;99.90;;;;;;5158385;27;20093;-76
2023/09/10 03:56:41;;;;;;;39.60;16.90;;;15.40;99.90;;;;;;5158671;27;20083;-77
2023/09/10 03:59:07;;;;;;;56.30;17.50;;;15.30;99.90;;;;;;5158754;27;20042;-77
2023/09/10 04:01:34;;;;;;;25.23;13.25;;;15.30;99.90;;;;;;5158473;27;20395;-75
2023/09/10 04:04:00;;;;;;;67.38;16.73;;;15.20;99.90;;;;;;5140401;27;20051;-76
2023/09/10 04:06:25;;;;;;;78.65;17.38;;;15.20;99.90;;;;;;5148346;27;20076;-77
2023/09/10 04:08:51;;;;;;;27.20;17.38;;;15.10;99.90;;;;;;5137690;27;20133;-77
2023/09/10 04:11:17;;;;;;;20.23;16.02;;;15.10;99.90;;;;;;5137216;27;20042;-76
2023/09/10 04:13:42;;;;;;;35.83;15.07;;;15.20;99.90;;;;;;5119241;27;20125;-76
2023/09/10 04:16:08;;;;;;;80.22;15.57;;;15.20;99.90;;;;;;5137501;27;20039;-76
2023/09/10 04:18:34;;;;;;;20.50;11.98;;;15.10;99.90;;;;;;5137528;27;20567;-76
2023/09/10 04:21:04;;;;;;;16.88;11.75;;;15.10;99.90;;;;;;5137252;27;20502;-76
2023/09/10 04:23:30;;;;;;;14.80;12.73;;;15.00;99.90;;;;;;5137473;27;20047;-76
2023/09/10 04:25:56;;;;;;;17.27;14.25;;;15.10;99.90;;;;;;5137143;27;20055;-77
2023/09/10 04:28:22;;;;;;;17.35;14.38;;;15.10;99.90;;;;;;5137270;27;20043;-76
2023/09/10 04:30:47;;;;;;;19.13;15.15;;;15.10;99.90;;;;;;5118461;27;20043;-77
2023/09/10 04:33:16;;;;;;;20.40;16.63;;;15.10;99.90;;;;;;5136797;27;20039;-77
2023/09/10 04:35:48;;;;;;;19.08;15.55;;;15.10;99.90;;;;;;5137052;27;20043;-76
2023/09/10 04:38:14;;;;;;;16.73;14.13;;;15.10;99.90;;;;;;5146285;27;20397;-76
2023/09/10 04:40:41;;;;;;;17.13;14.20;;;15.10;99.90;;;;;;5156871;27;20088;-77
2023/09/10 04:43:07;;;;;;;25.50;18.52;;;15.10;99.90;;;;;;5157503;27;20050;-77
2023/09/10 04:45:33;;;;;;;42.03;18.23;;;15.10;99.90;;;;;;5157676;27;20111;-77
2023/09/10 04:47:58;;;;;;;20.70;15.75;;;15.10;99.90;;;;;;5157606;27;20038;-77
2023/09/10 04:50:24;;;;;;;17.25;15.45;;;15.10;99.90;;;;;;5138982;27;20467;-77
2023/09/10 04:52:51;;;;;;;15.60;13.93;;;15.10;99.90;;;;;;5157652;27;20042;-77
2023/09/10 04:55:17;;;;;;;17.83;12.77;;;15.10;99.90;;;;;;5157559;27;20050;-77
2023/09/10 04:57:42;;;;;;;20.10;13.15;;;15.20;99.90;;;;;;5156690;27;20054;-77
2023/09/10 05:00:09;;;;;;;14.32;12.35;;;15.20;99.90;;;;;;5157255;27;20129;-77
2023/09/10 05:02:35;;;;;;;17.73;10.75;;;15.20;99.90;;;;;;5156985;27;20046;-76
2023/09/10 05:05:00;;;;;;;67.75;12.43;;;15.20;99.90;;;;;;5157142;27;20129;-77
2023/09/10 05:07:26;;;;;;;10.30;9.10;;;15.20;99.90;;;;;;5138456;27;20090;-77
2023/09/10 05:09:54;;;;;;;11.98;10.77;;;15.20;99.90;;;;;;5136265;27;20054;-76
2023/09/10 05:12:20;;;;;;;12.82;11.32;;;15.10;99.90;;;;;;5100868;27;20050;-76
2023/09/10 05:14:45;;;;;;;11.73;10.52;;;15.10;99.90;;;;;;5118054;27;20039;-77
2023/09/10 05:17:11;;;;;;;11.05;9.95;;;15.10;99.90;;;;;;5135997;27;20126;-76
2023/09/10 05:19:37;;;;;;;13.13;11.18;;;15.10;99.90;;;;;;5118118;27;20386;-77
2023/09/10 05:22:03;;;;;;;11.88;10.00;;;15.10;99.90;;;;;;5118266;27;20039;-76
2023/09/10 05:24:28;;;;;;;13.90;11.95;;;15.10;99.90;;;;;;5136233;27;20092;-76
2023/09/10 05:26:54;;;;;;;17.05;13.57;;;15.20;99.90;;;;;;5136243;27;20395;-77
2023/09/10 05:29:20;;;;;;;15.05;10.60;;;15.20;99.90;;;;;;5136069;27;20047;-75
2023/09/10 05:31:45;;;;;;;17.48;12.35;;;15.20;99.90;;;;;;5136330;27;20047;-76
2023/09/10 05:34:11;;;;;;;12.55;11.25;;;15.20;99.90;;;;;;5136041;27;20043;-77
2023/09/10 05:36:37;;;;;;;16.15;13.57;;;15.20;99.90;;;;;;5136262;27;20433;-76
2023/09/10 05:39:02;;;;;;;14.77;12.23;;;15.20;99.90;;;;;;5151835;27;20043;-76
2023/09/10 05:41:28;;;;;;;18.30;14.75;;;15.20;99.90;;;;;;5155761;27;20122;-77
2023/09/10 05:43:54;;;;;;;17.90;14.10;;;15.30;99.90;;;;;;5156592;27;20398;-78
2023/09/10 05:46:20;;;;;;;16.33;12.98;;;15.40;99.90;;;;;;5156202;27;20035;-77
2023/09/10 05:48:45;;;;;;;13.52;12.13;;;15.50;99.90;;;;;;5156126;27;20516;-77
2023/09/10 05:51:11;;;;;;;13.45;12.05;;;15.50;99.90;;;;;;5155833;27;20035;-77
2023/09/10 05:53:38;;;;;;;13.13;11.30;;;15.60;99.90;;;;;;5156128;27;20493;-78
2023/09/10 05:56:04;;;;;;;13.02;11.43;;;15.60;99.90;;;;;;5156112;27;20043;-78
2023/09/10 05:58:30;;;;;;;13.55;11.95;;;15.70;99.90;;;;;;5156231;27;20443;-77
2023/09/10 06:00:55;;;;;;;14.52;12.50;;;15.80;99.90;;;;;;5137668;27;20402;-78
2023/09/10 06:03:21;;;;;;;14.85;12.15;;;15.90;99.90;;;;;;5155957;27;20035;-78
2023/09/10 06:05:49;;;;;;;15.77;12.55;;;16.00;99.90;;;;;;5151914;27;20059;-77
2023/09/10 06:08:14;;;;;;;15.18;12.63;;;16.00;99.90;;;;;;5135247;27;20043;-78
2023/09/10 06:10:40;;;;;;;16.70;14.57;;;16.00;99.90;;;;;;5134933;27;20046;-77
2023/09/10 06:13:06;;;;;;;19.05;15.05;;;16.10;99.90;;;;;;5135247;27;20479;-77
2023/09/10 06:15:31;;;;;;;20.98;16.58;;;16.20;99.90;;;;;;5135023;27;20039;-78
2023/09/10 06:17:57;;;;;;;21.25;16.48;;;16.30;99.90;;;;;;5135094;27;20068;-77
2023/09/10 06:20:23;;;;;;;22.38;17.20;;;16.30;99.90;;;;;;5099860;28;20523;-77
2023/09/10 06:22:49;;;;;;;23.75;17.33;;;16.40;99.90;;;;;;5135114;27;20229;-77
2023/09/10 06:25:15;;;;;;;21.30;16.48;;;16.50;99.90;;;;;;5134613;27;20047;-77
2023/09/10 06:27:40;;;;;;;19.98;16.17;;;16.60;99.90;;;;;;5134859;27;20051;-67
2023/09/10 06:30:06;;;;;;;19.70;14.73;;;16.70;99.90;;;;;;5141307;27;20042;-67
2023/09/10 06:32:32;;;;;;;15.73;14.02;;;16.80;99.90;;;;;;5155440;27;20046;-66
2023/09/10 06:34:58;;;;;;;15.13;13.55;;;16.90;99.90;;;;;;5137543;27;20053;-65
2023/09/10 06:37:24;;;;;;;15.35;13.75;;;17.10;99.90;;;;;;5153717;27;20087;-65
2023/09/10 06:39:50;;;;;;;17.15;14.40;;;17.20;99.90;;;;;;5134648;27;20108;-65
2023/09/10 06:42:15;;;;;;;17.63;14.50;;;17.20;99.90;;;;;;5145712;27;20535;-65
2023/09/10 06:44:43;;;;;;;19.83;16.00;;;17.40;99.90;;;;;;5136205;27;20063;-65
2023/09/10 06:47:12;;;;;;;21.98;18.13;;;17.50;99.90;;;;;;5135255;27;20043;-65
2023/09/10 06:49:38;;;;;;;18.95;16.45;;;17.60;99.90;;;;;;5116161;27;20135;-65
2023/09/10 06:52:05;;;;;;;21.08;18.05;;;17.60;99.90;;;;;;5134645;27;20049;-65
2023/09/10 06:54:31;;;;;;;23.15;19.25;;;17.80;99.90;;;;;;5134472;27;20054;-65
2023/09/10 06:56:58;;;;;;;25.20;20.52;;;17.90;99.90;;;;;;5134460;27;20057;-65
2023/09/10 06:59:24;;;;;;;26.08;21.02;;;18.00;99.90;;;;;;5134128;27;20051;-65
2023/09/10 07:01:50;;;;;;;25.27;20.77;;;18.10;99.90;;;;;;5134147;27;20043;-65
2023/09/10 07:04:18;;;;;;;24.48;20.17;;;18.20;99.90;;;;;;5133827;27;20525;-65
2023/09/10 07:06:45;;;;;;;23.92;20.17;;;18.20;99.90;;;;;;5146234;27;20059;-65
2023/09/10 07:09:11;;;;;;;27.58;22.83;;;18.40;99.90;;;;;;5155103;27;20047;-65
2023/09/10 07:11:37;;;;;;;29.27;24.95;;;18.50;99.90;;;;;;5154808;27;20046;-66
2023/09/10 07:14:03;;;;;;;30.85;26.08;;;18.60;99.90;;;;;;5155112;27;20116;-65
2023/09/10 07:16:28;;;;;;;32.95;27.73;;;18.70;99.90;;;;;;5155047;27;20042;-65
2023/09/10 07:18:54;;;;;;;33.95;27.20;;;18.80;99.90;;;;;;5154886;27;20042;-65
2023/09/10 07:21:20;;;;;;;34.35;28.05;;;18.90;99.90;;;;;;5138447;27;20115;-65
2023/09/10 07:23:45;;;;;;;34.35;28.58;;;19.00;99.90;;;;;;5135079;27;20558;-66
2023/09/10 07:26:11;;;;;;;35.13;28.50;;;19.20;99.90;;;;;;5147729;27;20078;-65
2023/09/10 07:28:37;;;;;;;31.88;25.83;;;19.30;99.90;;;;;;5150501;27;20096;-65
2023/09/10 07:31:02;;;;;;;33.13;27.60;;;19.40;99.90;;;;;;5127907;27;20043;-65
2023/09/10 07:33:28;;;;;;;31.58;25.63;;;19.60;99.90;;;;;;5141916;27;20096;-65
2023/09/10 07:35:55;;;;;;;36.10;27.20;;;19.70;99.90;;;;;;5146046;27;20508;-66
2023/09/10 07:38:20;;;;;;;34.40;28.45;;;19.80;99.90;;;;;;5141398;27;20514;-66
2023/09/10 07:40:46;;;;;;;33.45;26.70;;;20.00;99.90;;;;;;5133822;27;20078;-64
2023/09/10 07:43:12;;;;;;;34.05;27.77;;;20.10;99.90;;;;;;5134839;27;20055;-64
2023/09/10 07:45:39;;;;;;;32.78;26.52;;;20.20;99.90;;;;;;5151806;27;20043;-65
2023/09/10 07:48:06;;;;;;;35.63;27.90;;;20.30;99.90;;;;;;5136049;27;20058;-64
2023/09/10 07:50:31;;;;;;;35.63;27.27;;;20.50;99.90;;;;;;5117715;28;20051;-65
2023/09/10 07:52:57;;;;;;;29.00;24.70;;;20.60;99.90;;;;;;5133151;28;20054;-64
2023/09/10 07:55:23;;;;;;;33.97;25.65;;;20.80;99.90;;;;;;5133125;27;20047;-65
2023/09/10 07:57:49;;;;;;;29.08;24.13;;;20.90;99.90;;;;;;5133161;28;20050;-64
2023/09/10 08:00:19;;;;;;;27.55;23.30;;;21.00;99.90;;;;;;5133122;27;20047;-65
2023/09/10 08:02:45;;;;;;;27.67;22.50;;;21.20;99.90;;;;;;5114862;28;20061;-66
2023/09/10 08:05:11;;;;;;;25.23;22.00;;;21.30;99.90;;;;;;5133146;27;20136;-65
2023/09/10 08:07:37;;;;;;;25.48;21.23;;;21.40;99.90;;;;;;5151719;27;20104;-65
2023/09/10 08:10:03;;;;;;;26.02;21.08;;;21.50;99.90;;;;;;5153796;27;20490;-65
2023/09/10 08:12:29;;;;;;;24.75;20.92;;;21.50;99.90;;;;;;5153510;27;20047;-66
2023/09/10 08:14:54;;;;;;;22.80;19.20;;;21.60;99.90;;;;;;5155732;27;20501;-65
2023/09/10 08:17:21;;;;;;;23.25;20.02;;;21.70;99.90;;;;;;5138907;27;20081;-64
2023/09/10 08:19:46;;;;;;;21.58;18.80;;;21.80;99.90;;;;;;5146602;27;20051;-65
2023/09/10 08:22:12;;;;;;;21.20;18.15;;;21.90;99.90;;;;;;5136502;27;20050;-65
2023/09/10 08:24:38;;;;;;;22.38;18.88;;;22.00;99.90;;;;;;5137289;27;20382;-64
2023/09/10 08:27:04;;;;;;;22.90;19.77;;;22.10;99.90;;;;;;5136681;27;20043;-65
2023/09/10 08:29:30;;;;;;;21.80;18.25;;;22.20;99.90;;;;;;5136771;27;20047;-65
2023/09/10 08:31:57;;;;;;;20.60;17.83;;;22.30;99.90;;;;;;5150285;27;20045;-65
2023/09/10 08:34:23;;;;;;;19.52;16.70;;;22.40;99.90;;;;;;5151679;27;20122;-65
2023/09/10 08:36:48;;;;;;;17.70;15.80;;;22.50;99.90;;;;;;5136025;27;20131;-65
2023/09/10 08:39:14;;;;;;;18.50;15.60;;;22.50;99.90;;;;;;5153410;27;20050;-65
2023/09/10 08:42:06;;;;;;;16.98;15.18;;;22.70;99.90;;;;;;5156590;27;20431;-66
2023/09/10 08:44:32;;;;;;;17.60;15.70;;;22.80;99.90;;;;;;5153298;27;20364;-66
2023/09/10 08:47:01;;;;;;;17.98;15.20;;;22.90;99.90;;;;;;5118268;27;20472;-66
2023/09/10 08:49:29;;;;;;;18.23;15.57;;;23.00;99.90;;;;;;5118286;27;20088;-66
2023/09/10 08:51:56;;;;;;;17.55;15.15;;;23.10;99.90;;;;;;5135904;27;20066;-65
2023/09/10 08:54:22;;;;;;;17.08;14.15;;;23.20;99.90;;;;;;5147896;27;20043;-64
2023/09/10 08:56:49;;;;;;;16.55;13.77;;;23.30;99.90;;;;;;5127506;27;20054;-64
2023/09/10 08:59:16;;;;;;;17.40;15.07;;;23.40;99.90;;;;;;5127946;27;20078;-66
2023/09/10 09:01:44;;;;;;;15.52;13.63;;;23.50;99.90;;;;;;5129331;27;20092;-66
2023/09/10 09:04:12;;;;;;;15.70;12.35;;;23.60;99.90;;;;;;5145954;27;20103;-65
2023/09/10 09:06:43;;;;;;;15.95;14.15;;;23.60;99.90;;;;;;5146920;27;20146;-64
2023/09/10 09:09:12;;;;;;;16.60;13.93;;;23.80;99.90;;;;;;5146274;27;20043;-63
2023/09/10 09:11:39;;;;;;;15.73;12.68;;;23.90;99.90;;;;;;5156259;27;20043;-64
2023/09/10 09:14:08;;;;;;;14.48;12.88;;;24.00;99.90;;;;;;5155358;27;20380;-65
2023/09/10 09:16:34;;;;;;;14.10;12.60;;;24.10;99.90;;;;;;5117160;27;20122;-65
2023/09/10 09:19:09;;;;;;;14.43;12.77;;;24.20;99.90;;;;;;5148245;27;20072;-65
2023/09/10 09:21:38;;;;;;;13.32;10.93;;;24.30;99.90;;;;;;5117152;27;20444;-65
2023/09/10 09:24:05;;;;;;;13.02;11.48;;;24.50;99.90;;;;;;5135973;27;20047;-64
2023/09/10 09:26:32;;;;;;;12.85;10.63;;;24.60;99.90;;;;;;5116291;27;20047;-65
2023/09/10 09:28:58;;;;;;;12.90;10.95;;;24.70;99.90;;;;;;5117103;27;20051;-65
2023/09/10 09:31:25;;;;;;;10.85;9.70;;;24.70;99.90;;;;;;5144078;27;20088;-66
2023/09/10 09:33:51;;;;;;;10.10;8.93;;;24.80;99.90;;;;;;5134605;27;20071;-64
2023/09/10 09:36:17;;;;;;;11.27;9.45;;;24.90;99.90;;;;;;5153538;27;20069;-64
2023/09/10 09:38:45;;;;;;;10.55;9.45;;;25.00;99.90;;;;;;5142825;27;20047;-65
2023/09/10 09:41:11;;;;;;;9.35;8.35;;;25.10;99.90;;;;;;5134882;27;20475;-64
2023/09/10 09:43:36;;;;;;;12.05;9.57;;;25.20;99.90;;;;;;5134917;27;20414;-66
2023/09/10 09:46:03;;;;;;;9.88;8.40;;;25.30;99.90;;;;;;5135345;27;20043;-64
2023/09/10 09:48:30;;;;;;;10.20;8.80;;;25.40;99.90;;;;;;5135356;27;20042;-64
2023/09/10 09:50:57;;;;;;;10.73;8.95;;;25.50;99.90;;;;;;5134614;27;20043;-65
2023/09/10 09:53:26;;;;;;;11.02;9.13;;;25.60;99.90;;;;;;5135340;27;20518;-64
2023/09/10 09:56:00;;;;;;;12.25;9.30;;;25.60;99.90;;;;;;5135161;27;20130;-65
2023/09/10 09:58:26;;;;;;;12.85;10.95;;;25.80;99.90;;;;;;5134596;27;20433;-64
2023/09/10 10:00:52;;;;;;;11.57;10.38;;;25.80;99.90;;;;;;5135071;27;20078;-66
2023/09/10 10:03:18;;;;;;;11.75;10.35;;;26.00;99.90;;;;;;5135283;27;20082;-65
2023/09/10 10:05:48;;;;;;;11.65;10.32;;;26.00;99.90;;;;;;5102916;27;20055;-65
2023/09/10 10:08:15;;;;;;;12.27;11.07;;;26.10;99.90;;;;;;5155265;27;20058;-65
2023/09/10 10:10:46;;;;;;;11.75;10.55;;;26.10;99.90;;;;;;5154979;27;20484;-65
2023/09/10 10:13:14;;;;;;;11.30;9.75;;;26.20;99.90;;;;;;5155147;27;20118;-65
2023/09/10 10:15:41;;;;;;;10.20;9.10;;;26.30;99.90;;;;;;5155206;27;20126;-65
2023/09/10 10:18:08;;;;;;;10.55;9.45;;;26.40;99.90;;;;;;5155465;27;20058;-65
2023/09/10 10:20:34;;;;;;;11.80;9.88;;;26.50;99.90;;;;;;5144888;27;20043;-65
2023/09/10 10:23:00;;;;;;;12.05;9.88;;;26.60;99.90;;;;;;5116330;27;20070;-65
2023/09/10 10:25:26;;;;;;;12.23;9.50;;;26.70;99.90;;;;;;5134587;27;20118;-65
2023/09/10 10:27:54;;;;;;;10.68;9.18;;;26.80;99.90;;;;;;5134266;27;20035;-65
2023/09/10 10:30:22;;;;;;;10.05;9.00;;;26.90;99.90;;;;;;5134761;27;20092;-65
2023/09/10 10:32:50;;;;;;;11.32;9.10;;;26.90;99.90;;;;;;5134408;27;20039;-65
2023/09/10 10:35:16;;;;;;;10.45;9.45;;;27.00;99.90;;;;;;5134171;27;20059;-64
2023/09/10 10:37:56;;;;;;;10.07;9.07;;;27.00;99.90;;;;;;5133958;27;20072;-64
2023/09/10 10:40:37;;;;;;;9.77;8.50;;;27.10;99.90;;;;;;5134525;27;20046;-65
2023/09/10 10:43:06;;;;;;;9.27;8.30;;;27.20;99.90;;;;;;5133903;27;20704;-65
2023/09/10 10:45:33;;;;;;;8.95;7.75;;;27.30;99.90;;;;;;5134389;27;20082;-66
2023/09/10 10:48:11;;;;;;;9.15;8.23;;;27.40;99.90;;;;;;5134169;27;20482;-66
2023/09/10 10:50:39;;;;;;;9.30;8.18;;;27.50;99.90;;;;;;5133399;27;20043;-65
2023/09/10 10:53:25;;;;;;;10.45;8.13;;;27.50;99.90;;;;;;5134262;27;20466;-65
2023/09/10 10:55:53;;;;;;;10.25;7.97;;;27.60;99.90;;;;;;5134072;27;20035;-66
2023/09/10 10:58:23;;;;;;;10.32;8.55;;;27.70;99.90;;;;;;5133523;27;20078;-66
2023/09/10 11:00:54;;;;;;;9.23;8.23;;;27.80;99.90;;;;;;5133948;27;20042;-66
2023/09/10 11:03:21;;;;;;;9.05;7.50;;;27.80;99.90;;;;;;5134115;27;20117;-66
2023/09/10 11:05:53;;;;;;;8.95;8.10;;;27.90;99.90;;;;;;5137352;27;20062;-65
2023/09/10 11:08:40;;;;;;;9.25;8.35;;;27.80;99.90;;;;;;5154065;27;20043;-66
2023/09/10 11:11:10;;;;;;;8.52;7.60;;;27.80;99.90;;;;;;5135416;27;20110;-68
2023/09/10 11:14:01;;;;;;;9.00;7.80;;;27.70;99.90;;;;;;5135916;27;20058;-65
2023/09/10 11:16:31;;;;;;;9.40;7.53;;;27.60;99.90;;;;;;5135697;27;20050;-64
2023/09/10 11:18:57;;;;;;;10.45;7.30;;;27.60;99.90;;;;;;5154431;27;20042;-66
2023/09/10 11:21:55;;;;;;;8.88;7.80;;;27.60;99.90;;;;;;5140451;27;20109;-65
2023/09/10 11:24:21;;;;;;;10.32;8.35;;;27.50;99.90;;;;;;5133928;28;20050;-65
2023/09/10 11:26:47;;;;;;;8.45;7.40;;;27.50;99.90;;;;;;5133088;27;20407;-65
2023/09/10 11:29:17;;;;;;;8.18;7.40;;;27.50;99.90;;;;;;5133515;28;20075;-65
2023/09/10 11:31:45;;;;;;;8.32;7.22;;;27.50;99.90;;;;;;5145457;27;20042;-65
2023/09/10 11:34:22;;;;;;;10.82;8.02;;;27.50;99.90;;;;;;5154760;27;20046;-64
2023/09/10 11:36:49;;;;;;;8.80;6.50;;;27.50;99.90;;;;;;5137649;27;20623;-65
2023/09/10 11:39:16;;;;;;;8.63;6.93;;;27.50;99.90;;;;;;5151368;27;20118;-65
2023/09/10 11:41:48;;;;;;;10.60;7.93;;;27.40;99.90;;;;;;5153519;27;20042;-64
2023/09/10 11:44:13;;;;;;;9.75;7.43;;;27.40;99.90;;;;;;5154289;27;20042;-64
2023/09/10 11:46:40;;;;;;;9.52;7.18;;;27.40;99.90;;;;;;5153528;27;20420;-64
2023/09/10 11:49:06;;;;;;;8.85;7.10;;;27.40;99.90;;;;;;5155362;27;20038;-65
2023/09/10 11:51:32;;;;;;;8.95;6.97;;;27.30;99.90;;;;;;5157727;27;20038;-65
2023/09/10 11:53:59;;;;;;;9.07;6.15;;;27.40;99.90;;;;;;5158655;27;20030;-65
2023/09/10 11:56:26;;;;;;;11.27;6.40;;;27.40;99.90;;;;;;5157902;27;20035;-65
2023/09/10 11:58:53;;;;;;;9.73;6.57;;;27.40;99.90;;;;;;5158579;27;20045;-65
2023/09/10 12:01:21;;;;;;;6.57;5.95;;;27.40;99.90;;;;;;5158012;27;20031;-66
2023/09/10 12:03:47;;;;;;;9.02;6.68;;;27.40;99.90;;;;;;5139575;27;20203;-65
2023/09/10 12:06:13;;;;;;;7.88;6.90;;;27.40;99.90;;;;;;5149179;27;20047;-65
2023/09/10 12:08:39;;;;;;;9.90;6.82;;;27.40;99.90;;;;;;5137306;27;20103;-66
2023/09/10 12:11:08;;;;;;;8.40;6.22;;;27.40;99.90;;;;;;5143076;27;20031;-65
2023/09/10 12:13:36;;;;;;;11.77;6.55;;;27.40;99.90;;;;;;5141334;27;20039;-65
2023/09/10 12:16:03;;;;;;;8.90;6.57;;;27.50;99.90;;;;;;5137187;27;20050;-65
2023/09/10 12:18:29;;;;;;;9.18;7.10;;;27.50;99.90;;;;;;5145265;27;20043;-65
2023/09/10 12:20:58;;;;;;;7.75;6.03;;;27.50;99.90;;;;;;5151176;27;20122;-64
2023/09/10 12:23:24;;;;;;;9.57;7.55;;;27.60;99.90;;;;;;5137380;27;20039;-64
2023/09/10 12:25:59;;;;;;;7.78;6.80;;;27.60;99.90;;;;;;5137187;27;20039;-64
2023/09/10 12:28:25;;;;;;;;;;;27.60;99.90;;;;;;5137048;27;20043;-65
2023/09/10 12:30:51;;;;;;;;;;;27.60;99.90;;;;;;5123601;27;19938;-65